createdAt,value
2018-09-20T00:02:29.695Z,2.10
2018-09-20T00:05:02.077Z,2.60
2018-09-20T00:07:34.812Z,2.80
2018-09-20T00:10:07.640Z,2.20
2018-09-20T00:12:40.792Z,2.63
2018-09-20T00:15:13.160Z,2.77
2018-09-20T00:17:45.340Z,2.60
2018-09-20T00:20:18.366Z,2.43
2018-09-20T00:22:50.890Z,2.83
2018-09-20T00:25:23.112Z,3.00
2018-09-20T00:27:55.297Z,2.50
2018-09-20T00:30:27.595Z,3.13
2018-09-20T00:32:59.896Z,2.50
2018-09-20T00:35:32.602Z,2.73
2018-09-20T00:38:05.093Z,2.80
2018-09-20T00:40:37.514Z,1.93
2018-09-20T00:43:10.829Z,2.20
2018-09-20T00:45:43.358Z,2.27
2018-09-20T00:48:16.003Z,2.70
2018-09-20T00:50:48.427Z,2.47
2018-09-20T00:53:20.934Z,2.23
2018-09-20T00:55:53.578Z,2.60
2018-09-20T00:58:25.994Z,2.47
2018-09-20T01:00:58.602Z,2.27
2018-09-20T01:03:31.185Z,2.17
2018-09-20T01:06:03.532Z,1.97
2018-09-20T01:08:36.101Z,1.90
2018-09-20T01:11:08.857Z,2.10
2018-09-20T01:13:41.605Z,1.70
2018-09-20T01:16:13.873Z,2.23
2018-09-20T01:18:46.573Z,1.80
2018-09-20T01:21:18.859Z,1.90
2018-09-20T01:23:51.175Z,2.30
2018-09-20T01:26:23.490Z,2.23
2018-09-20T01:28:55.945Z,2.80
2018-09-20T01:31:28.554Z,2.30
2018-09-20T01:34:00.850Z,2.10
2018-09-20T01:36:34.144Z,2.20
2018-09-20T01:39:10.663Z,2.50
2018-09-20T01:41:43.297Z,2.50
2018-09-20T01:44:15.721Z,2.20
2018-09-20T01:46:48.537Z,2.70
2018-09-20T01:49:21.043Z,2.60
2018-09-20T01:51:53.382Z,2.53
2018-09-20T01:54:25.691Z,2.20
2018-09-20T01:56:58.071Z,1.83
2018-09-20T01:59:30.299Z,2.27
2018-09-20T02:02:02.980Z,2.10
2018-09-20T02:04:35.720Z,1.63
2018-09-20T02:07:08.273Z,1.73
2018-09-20T02:09:40.754Z,1.50
2018-09-20T02:12:13.161Z,1.40
2018-09-20T02:14:45.600Z,1.60
2018-09-20T02:17:17.960Z,1.60
2018-09-20T02:19:50.517Z,1.53
2018-09-20T02:22:22.946Z,1.20
2018-09-20T02:24:55.338Z,1.50
2018-09-20T02:27:27.753Z,1.30
2018-09-20T02:30:00.101Z,1.00
2018-09-20T02:32:32.561Z,0.93
2018-09-20T02:35:04.962Z,1.10
2018-09-20T02:37:37.650Z,1.03
2018-09-20T02:40:10.101Z,0.90
2018-09-20T02:42:42.439Z,0.70
2018-09-20T02:45:15.053Z,0.97
2018-09-20T02:47:47.895Z,0.93
2018-09-20T02:50:20.525Z,0.80
2018-09-20T02:52:53.112Z,1.23
2018-09-20T02:55:25.484Z,1.00
2018-09-20T02:57:57.865Z,1.30
2018-09-20T03:00:30.180Z,0.80
2018-09-20T03:03:02.821Z,1.10
2018-09-20T03:05:35.160Z,1.17
2018-09-20T03:08:07.296Z,0.87
2018-09-20T03:10:39.434Z,1.10
2018-09-20T03:13:11.973Z,1.20
2018-09-20T03:15:44.546Z,0.90
2018-09-20T03:18:17.096Z,1.23
2018-09-20T03:20:49.280Z,0.93
2018-09-20T03:23:21.537Z,1.10
2018-09-20T03:25:54.199Z,1.10
2018-09-20T03:28:27.834Z,1.10
2018-09-20T03:31:00.558Z,1.27
2018-09-20T03:33:32.815Z,0.90
2018-09-20T03:36:05.323Z,1.27
2018-09-20T03:38:38.048Z,1.20
2018-09-20T03:41:10.476Z,1.13
2018-09-20T03:43:42.910Z,1.20
2018-09-20T03:46:15.090Z,1.23
2018-09-20T03:48:47.451Z,1.10
2018-09-20T03:51:19.669Z,1.13
2018-09-20T03:53:52.244Z,1.37
2018-09-20T03:56:24.664Z,1.10
2018-09-20T03:58:57.018Z,1.00
2018-09-20T04:01:29.322Z,1.20
2018-09-20T04:04:01.554Z,1.13
2018-09-20T04:06:34.090Z,1.40
2018-09-20T04:09:08.775Z,1.37
2018-09-20T04:11:41.747Z,1.30
2018-09-20T04:14:14.197Z,1.37
2018-09-20T04:16:46.667Z,1.20
2018-09-20T04:19:19.371Z,2.10
2018-09-20T04:21:51.944Z,1.40
2018-09-20T04:24:24.516Z,1.47
2018-09-20T04:26:57.116Z,1.33
2018-09-20T04:29:29.677Z,1.40
2018-09-20T04:32:02.094Z,1.60
2018-09-20T04:34:34.908Z,1.63
2018-09-20T04:37:07.085Z,1.40
2018-09-20T04:39:39.263Z,1.60
2018-09-20T04:42:12.151Z,1.70
2018-09-20T04:44:44.317Z,1.33
2018-09-20T04:47:16.404Z,1.70
2018-09-20T04:49:48.704Z,1.20
2018-09-20T04:52:20.810Z,1.37
2018-09-20T04:54:53.234Z,1.53
2018-09-20T04:57:25.262Z,1.77
2018-09-20T04:59:57.104Z,1.40
2018-09-20T05:02:29.284Z,1.40
2018-09-20T05:05:01.463Z,1.60
2018-09-20T05:07:33.750Z,1.67
2018-09-20T05:10:06.473Z,1.70
2018-09-20T05:12:40.066Z,1.60
2018-09-20T05:15:12.870Z,1.80
2018-09-20T05:17:45.200Z,1.70
2018-09-20T05:20:19.769Z,1.60
2018-09-20T05:22:51.963Z,1.60
2018-09-20T05:25:24.617Z,1.70
2018-09-20T05:27:56.749Z,1.50
2018-09-20T05:30:29.604Z,1.93
2018-09-20T05:33:01.966Z,1.77
2018-09-20T05:35:34.234Z,1.83
2018-09-20T05:38:06.750Z,1.77
2018-09-20T05:40:39.318Z,2.00
2018-09-20T05:43:11.689Z,2.20
2018-09-20T05:45:44.209Z,2.30
2018-09-20T05:48:16.860Z,1.83
2018-09-20T05:50:49.343Z,1.70
2018-09-20T05:53:21.771Z,1.40
2018-09-20T05:55:54.451Z,1.93
2018-09-20T05:58:26.731Z,1.70
2018-09-20T06:00:59.135Z,1.77
2018-09-20T06:03:31.886Z,2.10
2018-09-20T06:06:04.278Z,1.93
2018-09-20T06:08:36.465Z,1.80
2018-09-20T06:11:08.381Z,1.73
2018-09-20T06:13:40.825Z,1.77
2018-09-20T06:16:13.230Z,1.83
2018-09-20T06:18:45.614Z,1.93
2018-09-20T06:21:18.098Z,1.80
2018-09-20T06:23:50.530Z,1.70
2018-09-20T06:26:22.958Z,1.77
2018-09-20T06:28:55.434Z,2.00
2018-09-20T06:31:27.868Z,2.30
2018-09-20T06:34:00.009Z,2.43
2018-09-20T06:36:32.731Z,1.70
2018-09-20T06:39:05.917Z,2.00
2018-09-20T06:41:38.628Z,1.67
2018-09-20T06:44:11.181Z,2.00
2018-09-20T06:46:43.438Z,1.90
2018-09-20T06:49:15.800Z,1.97
2018-09-20T06:51:48.379Z,2.13
2018-09-20T06:54:20.731Z,2.00
2018-09-20T06:56:53.008Z,2.23
2018-09-20T06:59:25.172Z,1.97
2018-09-20T07:01:57.591Z,2.00
2018-09-20T07:04:29.914Z,2.33
2018-09-20T07:07:02.320Z,2.37
2018-09-20T07:09:34.578Z,2.47
2018-09-20T07:12:06.989Z,2.50
2018-09-20T07:14:39.536Z,2.17
2018-09-20T07:17:12.229Z,2.37
2018-09-20T07:19:44.623Z,2.00
2018-09-20T07:22:17.155Z,2.03
2018-09-20T07:24:49.249Z,2.20
2018-09-20T07:27:21.490Z,2.70
2018-09-20T07:29:53.823Z,2.20
2018-09-20T07:32:26.109Z,2.10
2018-09-20T07:34:58.457Z,2.37
2018-09-20T07:37:30.947Z,2.20
2018-09-20T07:40:03.823Z,1.80
2018-09-20T07:42:36.245Z,2.20
2018-09-20T07:45:08.631Z,1.83
2018-09-20T07:47:41.013Z,2.67
2018-09-20T07:50:13.313Z,2.03
2018-09-20T07:52:46.031Z,2.40
2018-09-20T07:55:18.392Z,2.60
2018-09-20T07:57:50.817Z,2.60
2018-09-20T08:00:23.225Z,2.63
2018-09-20T08:02:55.821Z,2.73
2018-09-20T08:05:28.307Z,2.60
2018-09-20T08:08:00.850Z,3.00
2018-09-20T08:10:33.573Z,2.60
2018-09-20T08:13:05.905Z,2.63
2018-09-20T08:15:38.174Z,2.73
2018-09-20T08:18:10.545Z,2.80
2018-09-20T08:20:42.881Z,2.90
2018-09-20T08:23:15.177Z,3.60
2018-09-20T08:25:47.629Z,2.73
2018-09-20T08:28:20.097Z,3.30
2018-09-20T08:30:52.458Z,3.30
2018-09-20T08:33:25.120Z,3.40
2018-09-20T08:35:57.664Z,3.40
2018-09-20T08:38:30.056Z,3.23
2018-09-20T08:41:02.766Z,3.30
2018-09-20T08:43:35.405Z,3.40
2018-09-20T08:46:08.143Z,3.40
2018-09-20T08:48:40.505Z,3.77
2018-09-20T08:51:12.649Z,3.80
2018-09-20T08:53:44.942Z,3.97
2018-09-20T08:56:17.354Z,4.00
2018-09-20T08:58:49.588Z,4.67
2018-09-20T09:01:21.845Z,4.30
2018-09-20T09:03:55.205Z,3.80
2018-09-20T09:06:27.605Z,4.47
2018-09-20T09:09:00.359Z,6.30
2018-09-20T09:11:32.771Z,5.97
2018-09-20T09:14:05.583Z,6.27
2018-09-20T09:16:37.914Z,6.50
2018-09-20T09:19:10.158Z,9.37
2018-09-20T09:21:42.698Z,8.60
2018-09-20T09:24:14.897Z,7.40
2018-09-20T09:26:47.244Z,7.50
2018-09-20T09:29:19.589Z,6.97
2018-09-20T09:31:51.962Z,7.60
2018-09-20T09:34:24.761Z,6.90
2018-09-20T09:36:57.309Z,7.07
2018-09-20T09:39:29.904Z,6.20
2018-09-20T09:42:02.203Z,6.27
2018-09-20T09:44:34.546Z,6.67
2018-09-20T09:47:06.728Z,5.87
2018-09-20T09:49:39.309Z,6.77
2018-09-20T09:52:11.731Z,7.30
2018-09-20T09:54:44.464Z,7.13
2018-09-20T09:57:16.898Z,5.70
2018-09-20T09:59:49.153Z,5.73
2018-09-20T10:02:21.680Z,7.17
2018-09-20T10:04:54.828Z,6.00
2018-09-20T10:07:27.182Z,7.60
2018-09-20T10:09:59.925Z,8.20
2018-09-20T10:12:32.437Z,8.07
2018-09-20T10:15:05.089Z,9.10
2018-09-20T10:17:37.294Z,7.40
2018-09-20T10:20:08.903Z,6.43
2018-09-20T10:22:41.454Z,6.03
2018-09-20T10:25:12.810Z,6.43
2018-09-20T10:27:45.212Z,7.50
2018-09-20T10:30:17.504Z,6.77
2018-09-20T10:32:49.718Z,6.53
2018-09-20T10:35:22.257Z,5.60
2018-09-20T10:37:54.677Z,5.90
2018-09-20T10:40:27.277Z,7.20
2018-09-20T10:42:59.889Z,6.90
2018-09-20T10:45:32.324Z,6.70
2018-09-20T10:48:04.618Z,14.83
2018-09-20T10:50:37.046Z,21.00
2018-09-20T10:53:09.368Z,33.30
2018-09-20T10:55:41.430Z,55.50
2018-09-20T10:58:13.815Z,59.60
2018-09-20T11:00:46.009Z,54.07
2018-09-20T11:03:18.369Z,77.30
2018-09-20T11:05:50.695Z,78.60
2018-09-20T11:08:22.963Z,80.80
2018-09-20T11:10:55.866Z,135.37
2018-09-20T11:13:28.172Z,138.40
2018-09-20T11:16:00.570Z,150.47
2018-09-20T11:18:33.185Z,137.43
2018-09-20T11:21:05.583Z,124.23
2018-09-20T11:23:37.913Z,75.60
2018-09-20T11:26:10.315Z,55.37
2018-09-20T11:28:42.662Z,45.80
2018-09-20T11:31:15.275Z,40.07
2018-09-20T11:33:47.446Z,17.97
2018-09-20T11:36:20.117Z,21.27
2018-09-20T11:38:52.572Z,19.63
2018-09-20T11:41:24.983Z,11.60
2018-09-20T11:43:57.752Z,11.30
2018-09-20T11:46:30.006Z,9.57
2018-09-20T11:49:02.280Z,7.63
2018-09-20T11:51:34.454Z,7.95
2018-09-20T11:54:07.030Z,8.77
2018-09-20T11:56:39.298Z,8.70
2018-09-20T11:59:11.489Z,9.28
2018-09-20T12:01:44.122Z,7.80
2018-09-20T12:04:16.411Z,9.50
2018-09-20T12:06:48.876Z,18.75
2018-09-20T12:09:21.194Z,12.77
2018-09-20T12:11:53.688Z,10.20
2018-09-20T12:14:26.047Z,9.20
2018-09-20T12:16:58.391Z,8.17
2018-09-20T12:19:30.746Z,12.00
2018-09-20T12:22:02.987Z,13.93
2018-09-20T12:24:35.577Z,10.85
2018-09-20T12:27:08.316Z,11.93
2018-09-20T12:29:40.788Z,10.63
2018-09-20T12:32:13.391Z,10.27
2018-09-20T12:34:45.836Z,9.97
2018-09-20T12:37:18.162Z,9.03
2018-09-20T12:39:50.741Z,8.25
2018-09-20T12:42:22.917Z,8.75
2018-09-20T12:44:55.264Z,8.40
2018-09-20T12:47:27.692Z,9.30
2018-09-20T12:50:00.222Z,9.60
2018-09-20T12:52:33.418Z,9.60
2018-09-20T12:55:05.636Z,10.53
2018-09-20T12:57:37.752Z,8.73
2018-09-20T13:00:11.109Z,10.73
2018-09-20T13:02:43.535Z,42.63
2018-09-20T13:05:15.911Z,28.80
2018-09-20T13:07:48.334Z,11.33
2018-09-20T13:10:20.726Z,15.98
2018-09-20T13:12:53.139Z,17.55
2018-09-20T13:15:25.202Z,10.63
2018-09-20T13:17:57.451Z,12.47
2018-09-20T13:20:29.815Z,14.35
2018-09-20T13:23:02.179Z,11.00
2018-09-20T13:25:34.658Z,9.30
2018-09-20T13:28:07.341Z,8.68
2018-09-20T13:30:39.736Z,9.83
2018-09-20T13:33:12.180Z,10.23
2018-09-20T13:35:44.468Z,8.60
2018-09-20T13:38:17.022Z,8.78
2018-09-20T13:40:49.384Z,7.90
2018-09-20T13:43:21.838Z,7.97
2018-09-20T13:45:54.027Z,8.05
2018-09-20T13:48:26.778Z,7.95
2018-09-20T13:50:58.980Z,9.20
2018-09-20T13:53:31.400Z,9.67
2018-09-20T13:56:04.013Z,10.30
2018-09-20T13:58:36.392Z,13.77
2018-09-20T14:01:09.185Z,16.27
2018-09-20T14:03:41.463Z,11.33
2018-09-20T14:06:14.142Z,9.03
2018-09-20T14:08:47.378Z,11.70
2018-09-20T14:11:19.931Z,12.58
2018-09-20T14:13:52.391Z,10.05
2018-09-20T14:16:25.056Z,10.23
2018-09-20T14:18:57.726Z,10.25
2018-09-20T14:21:30.115Z,10.40
2018-09-20T14:24:02.645Z,11.00
2018-09-20T14:26:35.065Z,10.93
2018-09-20T14:29:07.671Z,9.93
2018-09-20T14:31:40.145Z,9.20
2018-09-20T14:34:12.355Z,9.85
2018-09-20T14:36:45.327Z,9.77
2018-09-20T14:39:17.524Z,11.22
2018-09-20T14:41:49.964Z,12.63
2018-09-20T14:44:22.182Z,11.77
2018-09-20T14:46:54.780Z,11.57
2018-09-20T14:49:26.937Z,13.77
2018-09-20T14:51:59.625Z,10.90
2018-09-20T14:54:32.191Z,10.93
2018-09-20T14:57:04.619Z,12.23
2018-09-20T14:59:36.983Z,11.17
2018-09-20T15:02:09.366Z,10.30
2018-09-20T15:04:41.646Z,8.57
2018-09-20T15:07:13.917Z,9.80
2018-09-20T15:09:46.157Z,9.63
2018-09-20T15:12:18.198Z,9.23
2018-09-20T15:14:51.348Z,10.03
2018-09-20T15:17:23.478Z,8.60
2018-09-20T15:19:55.929Z,10.23
2018-09-20T15:22:28.517Z,8.83
2018-09-20T15:25:01.055Z,8.03
2018-09-20T15:27:33.279Z,8.20
2018-09-20T15:30:06.023Z,7.17
2018-09-20T15:32:38.580Z,8.83
2018-09-20T15:35:11.225Z,8.90
2018-09-20T15:37:43.562Z,8.90
2018-09-20T15:40:15.880Z,8.53
2018-09-20T15:42:48.438Z,9.40
2018-09-20T15:45:21.150Z,9.53
2018-09-20T15:47:53.557Z,10.23
2018-09-20T15:50:25.768Z,10.93
2018-09-20T15:52:57.776Z,9.23
2018-09-20T15:55:30.303Z,9.90
2018-09-20T15:58:02.337Z,9.50
2018-09-20T16:00:34.956Z,9.23
2018-09-20T16:03:08.267Z,8.80
2018-09-20T16:05:40.731Z,7.57
2018-09-20T16:08:13.091Z,7.07
2018-09-20T16:10:45.339Z,7.90
2018-09-20T16:13:17.777Z,7.83
2018-09-20T16:15:49.938Z,8.33
2018-09-20T16:18:22.131Z,7.37
2018-09-20T16:20:54.756Z,6.63
2018-09-20T16:23:27.487Z,6.40
2018-09-20T16:26:00.090Z,7.60
2018-09-20T16:30:58.987Z,7.80
2018-09-20T16:34:42.782Z,4.80
2018-09-20T16:37:35.527Z,6.87
2018-09-20T16:40:09.038Z,6.93
2018-09-20T16:42:45.520Z,6.33
2018-09-20T16:45:18.078Z,6.30
2018-09-20T16:47:50.317Z,5.90
2018-09-20T16:50:22.623Z,5.20
2018-09-20T16:52:55.235Z,5.23
2018-09-20T16:55:27.496Z,5.97
2018-09-20T16:57:59.834Z,4.83
2018-09-20T17:00:32.242Z,4.47
2018-09-20T17:03:04.493Z,5.20
2018-09-20T17:05:36.681Z,4.80
2018-09-20T17:08:09.059Z,4.43
2018-09-20T17:10:41.527Z,3.97
2018-09-20T17:13:13.754Z,4.40
2018-09-20T17:15:46.209Z,4.47
2018-09-20T17:18:18.912Z,4.73
2018-09-20T17:20:51.282Z,4.70
2018-09-20T17:23:23.681Z,4.57
2018-09-20T17:25:55.859Z,4.80
2018-09-20T17:28:28.619Z,4.13
2018-09-20T17:31:01.345Z,4.37
2018-09-20T17:33:33.619Z,4.07
2018-09-20T17:36:06.064Z,4.57
2018-09-20T17:38:40.284Z,3.90
2018-09-20T17:41:18.266Z,3.60
2018-09-20T17:43:55.683Z,3.80
2018-09-20T17:46:27.942Z,3.87
2018-09-20T17:49:00.277Z,3.53
2018-09-20T17:51:33.647Z,3.80
2018-09-20T17:54:06.610Z,3.90
2018-09-20T17:56:39.755Z,3.80
2018-09-20T17:59:11.866Z,3.20
2018-09-20T18:01:44.442Z,3.90
2018-09-20T18:04:17.156Z,3.70
2018-09-20T18:06:49.793Z,3.83
2018-09-20T18:09:22.314Z,3.97
2018-09-20T18:11:54.561Z,3.73
2018-09-20T18:14:26.892Z,5.00
2018-09-20T18:16:59.264Z,4.57
2018-09-20T18:19:31.808Z,4.30
2018-09-20T18:22:04.715Z,4.93
2018-09-20T18:24:37.237Z,5.50
2018-09-20T18:27:09.585Z,4.50
2018-09-20T18:29:42.564Z,3.67
2018-09-20T18:32:14.907Z,4.20
2018-09-20T18:34:47.267Z,3.90
2018-09-20T18:37:19.644Z,4.23
2018-09-20T18:39:51.827Z,3.30
2018-09-20T18:42:24.241Z,3.20
2018-09-20T18:44:56.581Z,3.70
2018-09-20T18:47:29.128Z,3.43
2018-09-20T18:50:01.994Z,3.10
2018-09-20T18:52:34.592Z,3.70
2018-09-20T18:55:07.097Z,3.23
2018-09-20T18:57:39.749Z,3.20
2018-09-20T19:00:12.165Z,3.00
2018-09-20T19:02:44.698Z,3.40
2018-09-20T19:05:17.060Z,3.87
2018-09-20T19:07:49.516Z,3.10
2018-09-20T19:10:21.706Z,3.93
2018-09-20T19:12:54.078Z,3.33
2018-09-20T19:15:26.436Z,3.70
2018-09-20T19:17:58.805Z,3.80
2018-09-20T19:20:31.439Z,3.00
2018-09-20T19:23:03.769Z,9.13
2018-09-20T19:25:36.228Z,4.77
2018-09-20T19:28:08.768Z,4.00
2018-09-20T19:30:41.590Z,3.47
2018-09-20T19:33:13.980Z,3.77
2018-09-20T19:35:46.438Z,4.10
2018-09-20T19:38:18.869Z,3.40
2018-09-20T19:40:51.054Z,2.70
2018-09-20T19:43:23.563Z,2.70
2018-09-20T19:45:56.217Z,3.37
2018-09-20T19:48:28.614Z,2.90
2018-09-20T19:51:00.851Z,2.67
2018-09-20T19:53:33.346Z,3.10
2018-09-20T19:56:06.582Z,2.60
2018-09-20T19:58:38.910Z,2.67
2018-09-20T20:01:11.248Z,2.10
2018-09-20T20:03:43.851Z,2.27
2018-09-20T20:06:16.150Z,3.37
2018-09-20T20:08:48.674Z,2.67
2018-09-20T20:11:21.285Z,2.37
2018-09-20T20:13:54.325Z,2.10
2018-09-20T20:16:26.709Z,1.90
2018-09-20T20:18:59.147Z,2.20
2018-09-20T20:21:31.205Z,2.47
2018-09-20T20:24:03.735Z,2.37
2018-09-20T20:26:36.115Z,1.73
2018-09-20T20:29:08.344Z,2.57
2018-09-20T20:31:40.863Z,2.23
2018-09-20T20:34:13.253Z,2.00
2018-09-20T20:36:45.603Z,2.40
2018-09-20T20:39:17.757Z,2.60
2018-09-20T20:41:49.825Z,2.20
2018-09-20T20:44:22.663Z,2.40
2018-09-20T20:46:56.041Z,3.40
2018-09-20T20:49:28.536Z,2.80
2018-09-20T20:52:01.367Z,2.40
2018-09-20T20:54:33.843Z,2.50
2018-09-20T20:57:06.435Z,3.40
2018-09-20T20:59:39.152Z,3.83
2018-09-20T21:02:11.603Z,3.10
2018-09-20T21:04:44.105Z,3.53
2018-09-20T21:07:16.499Z,3.30
2018-09-20T21:09:49.109Z,3.10
2018-09-20T21:12:21.537Z,3.20
2018-09-20T21:14:53.874Z,3.13
2018-09-20T21:17:26.631Z,3.80
2018-09-20T21:19:59.005Z,3.50
2018-09-20T21:22:31.617Z,3.70
2018-09-20T21:25:04.144Z,3.67
2018-09-20T21:27:36.852Z,2.90
2018-09-20T21:30:09.117Z,2.77
2018-09-20T21:32:41.507Z,3.27
2018-09-20T21:35:13.915Z,2.97
2018-09-20T21:37:46.032Z,2.70
2018-09-20T21:40:18.554Z,3.13
2018-09-20T21:42:54.168Z,3.90
2018-09-20T21:45:26.882Z,4.57
2018-09-20T21:47:59.514Z,3.67
2018-09-20T21:50:32.053Z,3.30
2018-09-20T21:53:04.443Z,3.07
2018-09-20T21:55:36.655Z,2.93
2018-09-20T21:58:09.366Z,2.90
2018-09-20T22:00:41.707Z,2.53
2018-09-20T22:03:14.254Z,3.00
2018-09-20T22:05:46.599Z,2.47
2018-09-20T22:08:18.731Z,2.53
2018-09-20T22:10:51.351Z,2.57
2018-09-20T22:13:23.923Z,2.33
2018-09-20T22:15:57.417Z,2.50
2018-09-20T22:18:30.012Z,2.27
2018-09-20T22:21:02.758Z,3.07
2018-09-20T22:23:34.859Z,2.67
2018-09-20T22:26:07.100Z,2.60
2018-09-20T22:28:39.468Z,2.07
2018-09-20T22:31:11.876Z,2.13
2018-09-20T22:33:44.182Z,2.50
2018-09-20T22:36:16.374Z,2.87
2018-09-20T22:38:49.288Z,2.60
2018-09-20T22:41:21.297Z,2.43
2018-09-20T22:43:53.535Z,2.47
2018-09-20T22:46:25.701Z,2.50
2018-09-20T22:48:58.348Z,2.67
2018-09-20T22:51:30.633Z,2.60
2018-09-20T22:54:03.004Z,2.30
2018-09-20T22:56:35.546Z,1.77
2018-09-20T22:59:08.172Z,2.70
2018-09-20T23:01:40.868Z,2.40
2018-09-20T23:04:14.990Z,2.90
2018-09-20T23:06:47.302Z,2.07
2018-09-20T23:09:19.786Z,2.13
2018-09-20T23:11:52.059Z,2.63
2018-09-20T23:14:24.251Z,2.00
2018-09-20T23:16:56.711Z,4.70
2018-09-20T23:19:29.081Z,2.50
2018-09-20T23:22:01.380Z,2.00
2018-09-20T23:24:33.642Z,2.13
2018-09-20T23:27:06.046Z,1.87
2018-09-20T23:29:38.564Z,2.23
2018-09-20T23:32:10.918Z,1.97
2018-09-20T23:34:43.727Z,2.40
2018-09-20T23:37:16.269Z,2.50
2018-09-20T23:39:48.679Z,2.00
2018-09-20T23:42:21.276Z,2.63
2018-09-20T23:44:53.419Z,2.37
2018-09-20T23:47:26.226Z,2.30
2018-09-20T23:49:58.388Z,2.13
2018-09-20T23:52:30.922Z,2.30
2018-09-20T23:55:03.938Z,2.23
2018-09-20T23:57:36.285Z,2.40
